KBUR/BUR METAR and TAF weather

Enter ICAO airport designator
Station Type Date Time Source
KBUR METAR 2018/04/21 20:53 UTC NOAA

KBUR 212053Z 15004KT 10SM CLR 31/03 A2999 RMK AO2 SLP143 T03110028 58019


Station Type Date Time Source
KBUR Decoded METAR 2018/04/21 20:53 UTC NOAA

BURBANK-GLENDALE-PASADENA, CA, United States (KBUR) 34-12N 118-22W 217M
Apr 21, 2018 - 04:53 PM EDT / 2018.04.21 2053 UTC
Wind: from the SSE (150 degrees) at 5 MPH (4 KT):0
Visibility: 10 mile(s):0
Sky conditions: clear
Temperature: 88.0 F (31.1 C)
Dew Point: 37.0 F (2.8 C)
Relative Humidity: 16%
Pressure (altimeter): 29.99 in. Hg (1015 hPa)
Pressure tendency: 0.06 inches (1.9 hPa) lower than three hours ago
ob: KBUR 212053Z 15004KT 10SM CLR 31/03 A2999 RMK AO2 SLP143 T03110028 58019
cycle: 21

Station Type Date Time Source
KBUR TAF 2018/04/21 18:22 UTC NOAA

TAF KBUR 211720Z 2118/2218 VRB03KT P6SM SKC
FM212100 17010KT P6SM SKC
FM220200 13006KT P6SM SCT250
FM220600 VRB03KT P6SM SCT250


Example: see airport list